<?xml version="1.0" encoding="UTF-8" standalone="no" ?>
<gpx xmlns="http://www.topografix.com/GPX/1/1" xmlns:xsi="http://www.w3.org/2001/XMLSchema-instance" xsi:schemaLocation="http://www.topografix.com/GPX/1/1 http://www.topografix.com/GPX/1/1/gpx.xsd" version="1.1" creator="VisuGPX - https://www.visugpx.com">
  <metadata>
    <name>Vacances 2021</name>
  </metadata>
  <trk>
    <name><![CDATA[Journal actif: 2021-07-30 15:22]]></name>
    <trkseg>
      <trkpt lat="48.8387" lon="-1.59847">
        <ele>3.98</ele>
        <time>2021-07-30T17:22:52Z</time>
      </trkpt>
      <trkpt lat="48.83855" lon="-1.59882">
        <ele>6.39</ele>
        <time>2021-07-30T17:23:03Z</time>
      </trkpt>
      <trkpt lat="48.83849" lon="-1.59894">
        <ele>5.91</ele>
        <time>2021-07-30T17:23:17Z</time>
      </trkpt>
      <trkpt lat="48.83819" lon="-1.59917">
        <ele>3.98</ele>
        <time>2021-07-30T17:23:25Z</time>
      </trkpt>
      <trkpt lat="48.83778" lon="-1.59971">
        <ele>4.46</ele>
        <time>2021-07-30T17:23:35Z</time>
      </trkpt>
      <trkpt lat="48.83741" lon="-1.60062">
        <ele>4.46</ele>
        <time>2021-07-30T17:23:45Z</time>
      </trkpt>
      <trkpt lat="48.83726" lon="-1.60106">
        <ele>3.5</ele>
        <time>2021-07-30T17:23:57Z</time>
      </trkpt>
      <trkpt lat="48.83714" lon="-1.60121">
        <ele>2.54</ele>
        <time>2021-07-30T17:24:08Z</time>
      </trkpt>
      <trkpt lat="48.83691" lon="-1.60181">
        <ele>4.46</ele>
        <time>2021-07-30T17:24:18Z</time>
      </trkpt>
      <trkpt lat="48.83643" lon="-1.60318">
        <ele>4.46</ele>
        <time>2021-07-30T17:24:38Z</time>
      </trkpt>
      <trkpt lat="48.8364" lon="-1.60324">
        <ele>4.46</ele>
        <time>2021-07-30T17:24:39Z</time>
      </trkpt>
      <trkpt lat="48.83636" lon="-1.60329">
        <ele>4.46</ele>
        <time>2021-07-30T17:24:40Z</time>
      </trkpt>
      <trkpt lat="48.83616" lon="-1.60358">
        <ele>4.46</ele>
        <time>2021-07-30T17:24:45Z</time>
      </trkpt>
      <trkpt lat="48.83616" lon="-1.60358">
        <ele>4.46</ele>
        <time>2021-07-30T17:24:46Z</time>
      </trkpt>
      <trkpt lat="48.83596" lon="-1.60414">
        <ele>3.98</ele>
        <time>2021-07-30T17:24:57Z</time>
      </trkpt>
      <trkpt lat="48.8357" lon="-1.60481">
        <ele>3.02</ele>
        <time>2021-07-30T17:25:09Z</time>
      </trkpt>
      <trkpt lat="48.8356" lon="-1.60509">
        <ele>3.5</ele>
        <time>2021-07-30T17:25:19Z</time>
      </trkpt>
      <trkpt lat="48.83549" lon="-1.60538">
        <ele>3.5</ele>
        <time>2021-07-30T17:25:30Z</time>
      </trkpt>
      <trkpt lat="48.83523" lon="-1.60619">
        <ele>3.5</ele>
        <time>2021-07-30T17:25:44Z</time>
      </trkpt>
      <trkpt lat="48.83506" lon="-1.60676">
        <ele>3.5</ele>
        <time>2021-07-30T17:25:55Z</time>
      </trkpt>
      <trkpt lat="48.83483" lon="-1.6075">
        <ele>3.5</ele>
        <time>2021-07-30T17:26:07Z</time>
      </trkpt>
      <trkpt lat="48.83479" lon="-1.60755">
        <ele>3.02</ele>
        <time>2021-07-30T17:26:08Z</time>
      </trkpt>
      <trkpt lat="48.83475" lon="-1.60759">
        <ele>3.02</ele>
        <time>2021-07-30T17:26:09Z</time>
      </trkpt>
      <trkpt lat="48.83471" lon="-1.60764">
        <ele>3.02</ele>
        <time>2021-07-30T17:26:10Z</time>
      </trkpt>
      <trkpt lat="48.83466" lon="-1.60769">
        <ele>3.02</ele>
        <time>2021-07-30T17:26:11Z</time>
      </trkpt>
      <trkpt lat="48.83458" lon="-1.60777">
        <ele>3.02</ele>
        <time>2021-07-30T17:26:12Z</time>
      </trkpt>
      <trkpt lat="48.83423" lon="-1.60805">
        <ele>3.5</ele>
        <time>2021-07-30T17:26:23Z</time>
      </trkpt>
      <trkpt lat="48.83421" lon="-1.60806">
        <ele>3.98</ele>
        <time>2021-07-30T17:26:24Z</time>
      </trkpt>
      <trkpt lat="48.83419" lon="-1.60808">
        <ele>3.98</ele>
        <time>2021-07-30T17:26:25Z</time>
      </trkpt>
      <trkpt lat="48.83419" lon="-1.60808">
        <ele>3.98</ele>
        <time>2021-07-30T17:26:26Z</time>
      </trkpt>
      <trkpt lat="48.83419" lon="-1.60808">
        <ele>3.98</ele>
        <time>2021-07-30T17:26:27Z</time>
      </trkpt>
      <trkpt lat="48.83419" lon="-1.60808">
        <ele>4.46</ele>
        <time>2021-07-30T17:26:48Z</time>
      </trkpt>
      <trkpt lat="48.83693" lon="-1.59958">
        <ele>-0.82</ele>
        <time>2021-07-30T18:33:27Z</time>
      </trkpt>
      <trkpt lat="48.83662" lon="-1.59947">
        <ele>7.83</ele>
        <time>2021-07-30T18:33:38Z</time>
      </trkpt>
      <trkpt lat="48.83626" lon="-1.59869">
        <ele>10.23</ele>
        <time>2021-07-30T18:33:52Z</time>
      </trkpt>
      <trkpt lat="48.83567" lon="-1.59723">
        <ele>8.79</ele>
        <time>2021-07-30T18:34:10Z</time>
      </trkpt>
      <trkpt lat="48.83559" lon="-1.59646">
        <ele>8.31</ele>
        <time>2021-07-30T18:34:20Z</time>
      </trkpt>
      <trkpt lat="48.8356" lon="-1.596">
        <ele>7.35</ele>
        <time>2021-07-30T18:34:27Z</time>
      </trkpt>
      <trkpt lat="48.8356" lon="-1.59594">
        <ele>7.35</ele>
        <time>2021-07-30T18:34:28Z</time>
      </trkpt>
      <trkpt lat="48.8356" lon="-1.59587">
        <ele>7.35</ele>
        <time>2021-07-30T18:34:29Z</time>
      </trkpt>
      <trkpt lat="48.83554" lon="-1.59575">
        <ele>7.35</ele>
        <time>2021-07-30T18:34:31Z</time>
      </trkpt>
      <trkpt lat="48.83552" lon="-1.59568">
        <ele>7.35</ele>
        <time>2021-07-30T18:34:32Z</time>
      </trkpt>
      <trkpt lat="48.83552" lon="-1.59564">
        <ele>7.35</ele>
        <time>2021-07-30T18:34:33Z</time>
      </trkpt>
      <trkpt lat="48.83555" lon="-1.59555">
        <ele>7.35</ele>
        <time>2021-07-30T18:34:34Z</time>
      </trkpt>
      <trkpt lat="48.83555" lon="-1.59546">
        <ele>6.87</ele>
        <time>2021-07-30T18:34:35Z</time>
      </trkpt>
      <trkpt lat="48.83554" lon="-1.59541">
        <ele>6.87</ele>
        <time>2021-07-30T18:34:36Z</time>
      </trkpt>
      <trkpt lat="48.83553" lon="-1.59535">
        <ele>6.87</ele>
        <time>2021-07-30T18:34:37Z</time>
      </trkpt>
      <trkpt lat="48.83552" lon="-1.59529">
        <ele>6.87</ele>
        <time>2021-07-30T18:34:38Z</time>
      </trkpt>
      <trkpt lat="48.8355" lon="-1.59522">
        <ele>6.87</ele>
        <time>2021-07-30T18:34:39Z</time>
      </trkpt>
      <trkpt lat="48.83548" lon="-1.59515">
        <ele>6.87</ele>
        <time>2021-07-30T18:34:40Z</time>
      </trkpt>
      <trkpt lat="48.83507" lon="-1.59426">
        <ele>7.83</ele>
        <time>2021-07-30T18:34:54Z</time>
      </trkpt>
      <trkpt lat="48.83451" lon="-1.59316">
        <ele>6.87</ele>
        <time>2021-07-30T18:35:09Z</time>
      </trkpt>
      <trkpt lat="48.83406" lon="-1.59197">
        <ele>11.67</ele>
        <time>2021-07-30T18:35:20Z</time>
      </trkpt>
      <trkpt lat="48.83358" lon="-1.59067">
        <ele>15.52</ele>
        <time>2021-07-30T18:35:33Z</time>
      </trkpt>
      <trkpt lat="48.83356" lon="-1.59059">
        <ele>15.52</ele>
        <time>2021-07-30T18:35:34Z</time>
      </trkpt>
      <trkpt lat="48.83355" lon="-1.59051">
        <ele>16</ele>
        <time>2021-07-30T18:35:35Z</time>
      </trkpt>
      <trkpt lat="48.83354" lon="-1.59042">
        <ele>16.48</ele>
        <time>2021-07-30T18:35:36Z</time>
      </trkpt>
      <trkpt lat="48.83353" lon="-1.59033">
        <ele>16.48</ele>
        <time>2021-07-30T18:35:37Z</time>
      </trkpt>
      <trkpt lat="48.83352" lon="-1.59025">
        <ele>16.96</ele>
        <time>2021-07-30T18:35:38Z</time>
      </trkpt>
      <trkpt lat="48.83355" lon="-1.59016">
        <ele>17.44</ele>
        <time>2021-07-30T18:35:39Z</time>
      </trkpt>
      <trkpt lat="48.83357" lon="-1.59005">
        <ele>17.92</ele>
        <time>2021-07-30T18:35:40Z</time>
      </trkpt>
      <trkpt lat="48.83373" lon="-1.58933">
        <ele>19.36</ele>
        <time>2021-07-30T18:35:46Z</time>
      </trkpt>
      <trkpt lat="48.83374" lon="-1.58907">
        <ele>19.36</ele>
        <time>2021-07-30T18:35:47Z</time>
      </trkpt>
      <trkpt lat="48.83374" lon="-1.58907">
        <ele>19.36</ele>
        <time>2021-07-30T18:35:48Z</time>
      </trkpt>
      <trkpt lat="48.83374" lon="-1.58893">
        <ele>19.84</ele>
        <time>2021-07-30T18:35:49Z</time>
      </trkpt>
      <trkpt lat="48.83373" lon="-1.5888">
        <ele>21.29</ele>
        <time>2021-07-30T18:35:50Z</time>
      </trkpt>
      <trkpt lat="48.8337" lon="-1.58867">
        <ele>22.73</ele>
        <time>2021-07-30T18:35:51Z</time>
      </trkpt>
      <trkpt lat="48.83343" lon="-1.58748">
        <ele>29.94</ele>
        <time>2021-07-30T18:36:02Z</time>
      </trkpt>
      <trkpt lat="48.83332" lon="-1.58738">
        <ele>31.38</ele>
        <time>2021-07-30T18:36:07Z</time>
      </trkpt>
      <trkpt lat="48.83331" lon="-1.58732">
        <ele>31.38</ele>
        <time>2021-07-30T18:36:08Z</time>
      </trkpt>
      <trkpt lat="48.83331" lon="-1.58729">
        <ele>31.38</ele>
        <time>2021-07-30T18:36:09Z</time>
      </trkpt>
      <trkpt lat="48.83332" lon="-1.58711">
        <ele>31.38</ele>
        <time>2021-07-30T18:36:10Z</time>
      </trkpt>
      <trkpt lat="48.83332" lon="-1.58711">
        <ele>31.86</ele>
        <time>2021-07-30T18:36:11Z</time>
      </trkpt>
      <trkpt lat="48.83328" lon="-1.58696">
        <ele>31.86</ele>
        <time>2021-07-30T18:36:12Z</time>
      </trkpt>
      <trkpt lat="48.83328" lon="-1.58696">
        <ele>31.86</ele>
        <time>2021-07-30T18:36:13Z</time>
      </trkpt>
      <trkpt lat="48.83296" lon="-1.58577">
        <ele>32.34</ele>
        <time>2021-07-30T18:36:25Z</time>
      </trkpt>
      <trkpt lat="48.83254" lon="-1.58485">
        <ele>28.5</ele>
        <time>2021-07-30T18:36:34Z</time>
      </trkpt>
      <trkpt lat="48.83193" lon="-1.58392">
        <ele>22.25</ele>
        <time>2021-07-30T18:36:42Z</time>
      </trkpt>
      <trkpt lat="48.83188" lon="-1.5838">
        <ele>21.77</ele>
        <time>2021-07-30T18:36:43Z</time>
      </trkpt>
      <trkpt lat="48.83163" lon="-1.58297">
        <ele>18.4</ele>
        <time>2021-07-30T18:36:52Z</time>
      </trkpt>
      <trkpt lat="48.83151" lon="-1.58264">
        <ele>17.44</ele>
        <time>2021-07-30T18:36:58Z</time>
      </trkpt>
      <trkpt lat="48.83148" lon="-1.5826">
        <ele>17.44</ele>
        <time>2021-07-30T18:36:59Z</time>
      </trkpt>
      <trkpt lat="48.83144" lon="-1.58255">
        <ele>16.96</ele>
        <time>2021-07-30T18:37:00Z</time>
      </trkpt>
      <trkpt lat="48.83072" lon="-1.58185">
        <ele>17.44</ele>
        <time>2021-07-30T18:37:10Z</time>
      </trkpt>
      <trkpt lat="48.83017" lon="-1.58143">
        <ele>23.21</ele>
        <time>2021-07-30T18:37:19Z</time>
      </trkpt>
      <trkpt lat="48.82953" lon="-1.58091">
        <ele>28.5</ele>
        <time>2021-07-30T18:37:26Z</time>
      </trkpt>
      <trkpt lat="48.82947" lon="-1.58086">
        <ele>28.98</ele>
        <time>2021-07-30T18:37:27Z</time>
      </trkpt>
      <trkpt lat="48.82942" lon="-1.58082">
        <ele>29.46</ele>
        <time>2021-07-30T18:37:28Z</time>
      </trkpt>
      <trkpt lat="48.82936" lon="-1.58076">
        <ele>29.94</ele>
        <time>2021-07-30T18:37:30Z</time>
      </trkpt>
      <trkpt lat="48.82933" lon="-1.58073">
        <ele>30.42</ele>
        <time>2021-07-30T18:37:31Z</time>
      </trkpt>
      <trkpt lat="48.8293" lon="-1.5807">
        <ele>30.42</ele>
        <time>2021-07-30T18:37:32Z</time>
      </trkpt>
      <trkpt lat="48.82928" lon="-1.58067">
        <ele>30.42</ele>
        <time>2021-07-30T18:37:33Z</time>
      </trkpt>
      <trkpt lat="48.82925" lon="-1.58064">
        <ele>30.42</ele>
        <time>2021-07-30T18:37:34Z</time>
      </trkpt>
      <trkpt lat="48.82924" lon="-1.58062">
        <ele>30.42</ele>
        <time>2021-07-30T18:37:35Z</time>
      </trkpt>
      <trkpt lat="48.82922" lon="-1.58061">
        <ele>30.42</ele>
        <time>2021-07-30T18:37:51Z</time>
      </trkpt>
      <trkpt lat="48.82905" lon="-1.5804">
        <ele>30.9</ele>
        <time>2021-07-30T18:38:26Z</time>
      </trkpt>
      <trkpt lat="48.82895" lon="-1.58029">
        <ele>30.9</ele>
        <time>2021-07-30T18:38:36Z</time>
      </trkpt>
      <trkpt lat="48.8289" lon="-1.58024">
        <ele>31.38</ele>
        <time>2021-07-30T18:38:53Z</time>
      </trkpt>
      <trkpt lat="48.82887" lon="-1.58021">
        <ele>31.38</ele>
        <time>2021-07-30T18:38:54Z</time>
      </trkpt>
      <trkpt lat="48.82825" lon="-1.57949">
        <ele>31.86</ele>
        <time>2021-07-30T18:39:05Z</time>
      </trkpt>
      <trkpt lat="48.82754" lon="-1.57888">
        <ele>28.98</ele>
        <time>2021-07-30T18:39:16Z</time>
      </trkpt>
      <trkpt lat="48.8266" lon="-1.57832">
        <ele>20.81</ele>
        <time>2021-07-30T18:39:28Z</time>
      </trkpt>
      <trkpt lat="48.82524" lon="-1.57725">
        <ele>14.08</ele>
        <time>2021-07-30T18:39:43Z</time>
      </trkpt>
      <trkpt lat="48.82411" lon="-1.57584">
        <ele>16</ele>
        <time>2021-07-30T18:39:56Z</time>
      </trkpt>
      <trkpt lat="48.82379" lon="-1.57546">
        <ele>16</ele>
        <time>2021-07-30T18:40:00Z</time>
      </trkpt>
      <trkpt lat="48.8237" lon="-1.57538">
        <ele>17.92</ele>
        <time>2021-07-30T18:40:01Z</time>
      </trkpt>
      <trkpt lat="48.82256" lon="-1.57468">
        <ele>14.08</ele>
        <time>2021-07-30T18:40:14Z</time>
      </trkpt>
      <trkpt lat="48.82195" lon="-1.57417">
        <ele>9.27</ele>
        <time>2021-07-30T18:40:23Z</time>
      </trkpt>
      <trkpt lat="48.82192" lon="-1.57412">
        <ele>8.79</ele>
        <time>2021-07-30T18:40:24Z</time>
      </trkpt>
      <trkpt lat="48.8219" lon="-1.57407">
        <ele>8.79</ele>
        <time>2021-07-30T18:40:25Z</time>
      </trkpt>
      <trkpt lat="48.82187" lon="-1.57402">
        <ele>8.79</ele>
        <time>2021-07-30T18:40:34Z</time>
      </trkpt>
      <trkpt lat="48.82187" lon="-1.57402">
        <ele>8.31</ele>
        <time>2021-07-30T18:41:41Z</time>
      </trkpt>
      <trkpt lat="48.82184" lon="-1.57397">
        <ele>8.31</ele>
        <time>2021-07-30T18:41:42Z</time>
      </trkpt>
      <trkpt lat="48.82183" lon="-1.57395">
        <ele>7.83</ele>
        <time>2021-07-30T18:41:43Z</time>
      </trkpt>
      <trkpt lat="48.82182" lon="-1.57392">
        <ele>7.83</ele>
        <time>2021-07-30T18:41:44Z</time>
      </trkpt>
      <trkpt lat="48.82179" lon="-1.57388">
        <ele>7.35</ele>
        <time>2021-07-30T18:41:45Z</time>
      </trkpt>
      <trkpt lat="48.82177" lon="-1.57383">
        <ele>7.35</ele>
        <time>2021-07-30T18:41:46Z</time>
      </trkpt>
      <trkpt lat="48.82141" lon="-1.57336">
        <ele>3.5</ele>
        <time>2021-07-30T18:41:55Z</time>
      </trkpt>
      <trkpt lat="48.82136" lon="-1.57335">
        <ele>3.5</ele>
        <time>2021-07-30T18:41:56Z</time>
      </trkpt>
      <trkpt lat="48.8205" lon="-1.57308">
        <ele>0.62</ele>
        <time>2021-07-30T18:42:12Z</time>
      </trkpt>
      <trkpt lat="48.81955" lon="-1.5728">
        <ele>0.62</ele>
        <time>2021-07-30T18:42:27Z</time>
      </trkpt>
      <trkpt lat="48.81846" lon="-1.57246">
        <ele>0.14</ele>
        <time>2021-07-30T18:42:45Z</time>
      </trkpt>
      <trkpt lat="48.81728" lon="-1.5721">
        <ele>-0.82</ele>
        <time>2021-07-30T18:43:05Z</time>
      </trkpt>
      <trkpt lat="48.81652" lon="-1.57177">
        <ele>-0.34</ele>
        <time>2021-07-30T18:43:18Z</time>
      </trkpt>
      <trkpt lat="48.81652" lon="-1.57177">
        <ele>-0.34</ele>
        <time>2021-07-30T18:43:19Z</time>
      </trkpt>
      <trkpt lat="48.81648" lon="-1.57173">
        <ele>-0.34</ele>
        <time>2021-07-30T18:43:20Z</time>
      </trkpt>
      <trkpt lat="48.81646" lon="-1.57168">
        <ele>-0.34</ele>
        <time>2021-07-30T18:43:21Z</time>
      </trkpt>
      <trkpt lat="48.81644" lon="-1.57161">
        <ele>-0.34</ele>
        <time>2021-07-30T18:43:22Z</time>
      </trkpt>
      <trkpt lat="48.81642" lon="-1.57155">
        <ele>-0.82</ele>
        <time>2021-07-30T18:43:23Z</time>
      </trkpt>
      <trkpt lat="48.81636" lon="-1.57119">
        <ele>1.1</ele>
        <time>2021-07-30T18:43:33Z</time>
      </trkpt>
      <trkpt lat="48.81634" lon="-1.57094">
        <ele>3.5</ele>
        <time>2021-07-30T18:43:43Z</time>
      </trkpt>
      <trkpt lat="48.81608" lon="-1.57051">
        <ele>6.39</ele>
        <time>2021-07-30T18:43:55Z</time>
      </trkpt>
      <trkpt lat="48.81559" lon="-1.57037">
        <ele>10.23</ele>
        <time>2021-07-30T18:44:10Z</time>
      </trkpt>
      <trkpt lat="48.81531" lon="-1.57001">
        <ele>11.67</ele>
        <time>2021-07-30T18:44:21Z</time>
      </trkpt>
      <trkpt lat="48.81509" lon="-1.57023">
        <ele>12.63</ele>
        <time>2021-07-30T18:44:29Z</time>
      </trkpt>
      <trkpt lat="48.81506" lon="-1.57025">
        <ele>12.63</ele>
        <time>2021-07-30T18:44:30Z</time>
      </trkpt>
      <trkpt lat="48.81501" lon="-1.57023">
        <ele>12.63</ele>
        <time>2021-07-30T18:44:31Z</time>
      </trkpt>
      <trkpt lat="48.81497" lon="-1.57021">
        <ele>12.63</ele>
        <time>2021-07-30T18:44:32Z</time>
      </trkpt>
      <trkpt lat="48.81493" lon="-1.57019">
        <ele>12.63</ele>
        <time>2021-07-30T18:44:33Z</time>
      </trkpt>
      <trkpt lat="48.81431" lon="-1.56968">
        <ele>7.35</ele>
        <time>2021-07-30T18:44:46Z</time>
      </trkpt>
      <trkpt lat="48.81379" lon="-1.56934">
        <ele>3.5</ele>
        <time>2021-07-30T18:44:54Z</time>
      </trkpt>
      <trkpt lat="48.81373" lon="-1.56932">
        <ele>3.5</ele>
        <time>2021-07-30T18:44:55Z</time>
      </trkpt>
      <trkpt lat="48.81368" lon="-1.56933">
        <ele>3.5</ele>
        <time>2021-07-30T18:44:56Z</time>
      </trkpt>
      <trkpt lat="48.81364" lon="-1.56936">
        <ele>3.5</ele>
        <time>2021-07-30T18:44:57Z</time>
      </trkpt>
      <trkpt lat="48.8136" lon="-1.5694">
        <ele>3.5</ele>
        <time>2021-07-30T18:44:58Z</time>
      </trkpt>
      <trkpt lat="48.81349" lon="-1.56947">
        <ele>3.02</ele>
        <time>2021-07-30T18:44:59Z</time>
      </trkpt>
      <trkpt lat="48.81344" lon="-1.56951">
        <ele>2.54</ele>
        <time>2021-07-30T18:45:01Z</time>
      </trkpt>
      <trkpt lat="48.81333" lon="-1.56959">
        <ele>2.06</ele>
        <time>2021-07-30T18:45:02Z</time>
      </trkpt>
      <trkpt lat="48.81333" lon="-1.56959">
        <ele>2.06</ele>
        <time>2021-07-30T18:45:03Z</time>
      </trkpt>
      <trkpt lat="48.81321" lon="-1.56964">
        <ele>2.06</ele>
        <time>2021-07-30T18:45:04Z</time>
      </trkpt>
      <trkpt lat="48.81321" lon="-1.56964">
        <ele>2.06</ele>
        <time>2021-07-30T18:45:05Z</time>
      </trkpt>
      <trkpt lat="48.81222" lon="-1.56991">
        <ele>1.58</ele>
        <time>2021-07-30T18:45:18Z</time>
      </trkpt>
      <trkpt lat="48.81093" lon="-1.57032">
        <ele>1.1</ele>
        <time>2021-07-30T18:45:32Z</time>
      </trkpt>
      <trkpt lat="48.81003" lon="-1.57044">
        <ele>3.98</ele>
        <time>2021-07-30T18:45:44Z</time>
      </trkpt>
      <trkpt lat="48.80895" lon="-1.57046">
        <ele>13.6</ele>
        <time>2021-07-30T18:45:56Z</time>
      </trkpt>
      <trkpt lat="48.8087" lon="-1.57046">
        <ele>14.56</ele>
        <time>2021-07-30T18:46:04Z</time>
      </trkpt>
      <trkpt lat="48.80815" lon="-1.57048">
        <ele>19.84</ele>
        <time>2021-07-30T18:46:13Z</time>
      </trkpt>
      <trkpt lat="48.8074" lon="-1.57044">
        <ele>20.81</ele>
        <time>2021-07-30T18:46:23Z</time>
      </trkpt>
      <trkpt lat="48.80733" lon="-1.57041">
        <ele>20.32</ele>
        <time>2021-07-30T18:46:24Z</time>
      </trkpt>
      <trkpt lat="48.80726" lon="-1.57039">
        <ele>19.84</ele>
        <time>2021-07-30T18:46:25Z</time>
      </trkpt>
      <trkpt lat="48.80721" lon="-1.57035">
        <ele>19.36</ele>
        <time>2021-07-30T18:46:26Z</time>
      </trkpt>
      <trkpt lat="48.80716" lon="-1.57029">
        <ele>18.88</ele>
        <time>2021-07-30T18:46:27Z</time>
      </trkpt>
      <trkpt lat="48.80711" lon="-1.57022">
        <ele>18.4</ele>
        <time>2021-07-30T18:46:28Z</time>
      </trkpt>
      <trkpt lat="48.80705" lon="-1.57016">
        <ele>17.92</ele>
        <time>2021-07-30T18:46:29Z</time>
      </trkpt>
      <trkpt lat="48.80701" lon="-1.5701">
        <ele>17.44</ele>
        <time>2021-07-30T18:46:30Z</time>
      </trkpt>
      <trkpt lat="48.80697" lon="-1.57001">
        <ele>16.96</ele>
        <time>2021-07-30T18:46:31Z</time>
      </trkpt>
      <trkpt lat="48.80694" lon="-1.56992">
        <ele>16.48</ele>
        <time>2021-07-30T18:46:32Z</time>
      </trkpt>
      <trkpt lat="48.80658" lon="-1.56908">
        <ele>11.67</ele>
        <time>2021-07-30T18:46:40Z</time>
      </trkpt>
      <trkpt lat="48.8065" lon="-1.56898">
        <ele>9.75</ele>
        <time>2021-07-30T18:46:41Z</time>
      </trkpt>
      <trkpt lat="48.80644" lon="-1.56889">
        <ele>9.27</ele>
        <time>2021-07-30T18:46:42Z</time>
      </trkpt>
      <trkpt lat="48.80638" lon="-1.56881">
        <ele>8.79</ele>
        <time>2021-07-30T18:46:43Z</time>
      </trkpt>
      <trkpt lat="48.80633" lon="-1.56875">
        <ele>8.31</ele>
        <time>2021-07-30T18:46:44Z</time>
      </trkpt>
      <trkpt lat="48.80625" lon="-1.56871">
        <ele>7.83</ele>
        <time>2021-07-30T18:46:45Z</time>
      </trkpt>
      <trkpt lat="48.80507" lon="-1.56827">
        <ele>0.62</ele>
        <time>2021-07-30T18:46:58Z</time>
      </trkpt>
      <trkpt lat="48.80444" lon="-1.56803">
        <ele>-0.34</ele>
        <time>2021-07-30T18:47:08Z</time>
      </trkpt>
      <trkpt lat="48.80289" lon="-1.56743">
        <ele>-1.79</ele>
        <time>2021-07-30T18:47:24Z</time>
      </trkpt>
      <trkpt lat="48.80095" lon="-1.56666">
        <ele>-0.82</ele>
        <time>2021-07-30T18:47:40Z</time>
      </trkpt>
      <trkpt lat="48.79926" lon="-1.5661">
        <ele>-0.82</ele>
        <time>2021-07-30T18:47:55Z</time>
      </trkpt>
      <trkpt lat="48.79784" lon="-1.56581">
        <ele>-1.3</ele>
        <time>2021-07-30T18:48:08Z</time>
      </trkpt>
      <trkpt lat="48.79609" lon="-1.56549">
        <ele>-1.79</ele>
        <time>2021-07-30T18:48:24Z</time>
      </trkpt>
      <trkpt lat="48.79577" lon="-1.56543">
        <ele>-1.3</ele>
        <time>2021-07-30T18:48:32Z</time>
      </trkpt>
      <trkpt lat="48.79526" lon="-1.56536">
        <ele>-1.3</ele>
        <time>2021-07-30T18:48:44Z</time>
      </trkpt>
      <trkpt lat="48.79515" lon="-1.56535">
        <ele>-1.3</ele>
        <time>2021-07-30T18:48:47Z</time>
      </trkpt>
      <trkpt lat="48.79511" lon="-1.56534">
        <ele>-1.3</ele>
        <time>2021-07-30T18:48:48Z</time>
      </trkpt>
      <trkpt lat="48.79488" lon="-1.56541">
        <ele>-1.3</ele>
        <time>2021-07-30T18:48:54Z</time>
      </trkpt>
      <trkpt lat="48.79485" lon="-1.56526">
        <ele>-1.3</ele>
        <time>2021-07-30T18:48:55Z</time>
      </trkpt>
      <trkpt lat="48.7948" lon="-1.56525">
        <ele>-1.3</ele>
        <time>2021-07-30T18:48:56Z</time>
      </trkpt>
      <trkpt lat="48.79451" lon="-1.5652">
        <ele>-1.3</ele>
        <time>2021-07-30T18:49:07Z</time>
      </trkpt>
      <trkpt lat="48.79429" lon="-1.56515">
        <ele>-0.82</ele>
        <time>2021-07-30T18:49:17Z</time>
      </trkpt>
      <trkpt lat="48.79361" lon="-1.56501">
        <ele>-0.34</ele>
        <time>2021-07-30T18:49:28Z</time>
      </trkpt>
      <trkpt lat="48.79332" lon="-1.56496">
        <ele>-0.34</ele>
        <time>2021-07-30T18:49:36Z</time>
      </trkpt>
      <trkpt lat="48.79306" lon="-1.5649">
        <ele>0.14</ele>
        <time>2021-07-30T18:49:46Z</time>
      </trkpt>
      <trkpt lat="48.79235" lon="-1.56475">
        <ele>-0.34</ele>
        <time>2021-07-30T18:49:56Z</time>
      </trkpt>
      <trkpt lat="48.79101" lon="-1.5645">
        <ele>-1.3</ele>
        <time>2021-07-30T18:50:09Z</time>
      </trkpt>
      <trkpt lat="48.78986" lon="-1.56447">
        <ele>-0.82</ele>
        <time>2021-07-30T18:50:21Z</time>
      </trkpt>
      <trkpt lat="48.78916" lon="-1.56484">
        <ele>0.62</ele>
        <time>2021-07-30T18:50:31Z</time>
      </trkpt>
      <trkpt lat="48.78877" lon="-1.5651">
        <ele>1.58</ele>
        <time>2021-07-30T18:50:42Z</time>
      </trkpt>
      <trkpt lat="48.78867" lon="-1.56516">
        <ele>2.06</ele>
        <time>2021-07-30T18:50:52Z</time>
      </trkpt>
      <trkpt lat="48.7885" lon="-1.56527">
        <ele>2.06</ele>
        <time>2021-07-30T18:51:01Z</time>
      </trkpt>
      <trkpt lat="48.78802" lon="-1.56559">
        <ele>2.54</ele>
        <time>2021-07-30T18:51:11Z</time>
      </trkpt>
      <trkpt lat="48.78678" lon="-1.56638">
        <ele>2.54</ele>
        <time>2021-07-30T18:51:25Z</time>
      </trkpt>
      <trkpt lat="48.78474" lon="-1.56751">
        <ele>1.1</ele>
        <time>2021-07-30T18:51:44Z</time>
      </trkpt>
      <trkpt lat="48.78336" lon="-1.56754">
        <ele>1.1</ele>
        <time>2021-07-30T18:51:57Z</time>
      </trkpt>
      <trkpt lat="48.78125" lon="-1.56754">
        <ele>1.1</ele>
        <time>2021-07-30T18:52:17Z</time>
      </trkpt>
      <trkpt lat="48.77932" lon="-1.56755">
        <ele>-0.34</ele>
        <time>2021-07-30T18:52:36Z</time>
      </trkpt>
      <trkpt lat="48.77828" lon="-1.56755">
        <ele>0.14</ele>
        <time>2021-07-30T18:52:49Z</time>
      </trkpt>
      <trkpt lat="48.77728" lon="-1.56757">
        <ele>-0.82</ele>
        <time>2021-07-30T18:53:05Z</time>
      </trkpt>
      <trkpt lat="48.77662" lon="-1.56758">
        <ele>-0.34</ele>
        <time>2021-07-30T18:53:20Z</time>
      </trkpt>
      <trkpt lat="48.77628" lon="-1.56759">
        <ele>0.14</ele>
        <time>2021-07-30T18:53:32Z</time>
      </trkpt>
      <trkpt lat="48.77618" lon="-1.56759">
        <ele>0.14</ele>
        <time>2021-07-30T18:53:44Z</time>
      </trkpt>
      <trkpt lat="48.77598" lon="-1.5676">
        <ele>0.62</ele>
        <time>2021-07-30T18:54:00Z</time>
      </trkpt>
      <trkpt lat="48.77583" lon="-1.5676">
        <ele>0.62</ele>
        <time>2021-07-30T18:54:03Z</time>
      </trkpt>
      <trkpt lat="48.77578" lon="-1.56761">
        <ele>0.62</ele>
        <time>2021-07-30T18:54:04Z</time>
      </trkpt>
      <trkpt lat="48.77569" lon="-1.56763">
        <ele>1.1</ele>
        <time>2021-07-30T18:54:06Z</time>
      </trkpt>
      <trkpt lat="48.77566" lon="-1.56767">
        <ele>1.1</ele>
        <time>2021-07-30T18:54:07Z</time>
      </trkpt>
      <trkpt lat="48.77559" lon="-1.56759">
        <ele>0.62</ele>
        <time>2021-07-30T18:54:08Z</time>
      </trkpt>
      <trkpt lat="48.77504" lon="-1.56761">
        <ele>0.62</ele>
        <time>2021-07-30T18:54:20Z</time>
      </trkpt>
      <trkpt lat="48.77417" lon="-1.56763">
        <ele>0.62</ele>
        <time>2021-07-30T18:54:34Z</time>
      </trkpt>
      <trkpt lat="48.77294" lon="-1.56758">
        <ele>1.1</ele>
        <time>2021-07-30T18:54:49Z</time>
      </trkpt>
      <trkpt lat="48.77102" lon="-1.56757">
        <ele>1.58</ele>
        <time>2021-07-30T18:55:09Z</time>
      </trkpt>
      <trkpt lat="48.77055" lon="-1.56759">
        <ele>1.58</ele>
        <time>2021-07-30T18:55:17Z</time>
      </trkpt>
      <trkpt lat="48.77009" lon="-1.56765">
        <ele>1.58</ele>
        <time>2021-07-30T18:55:28Z</time>
      </trkpt>
      <trkpt lat="48.769" lon="-1.56785">
        <ele>0.62</ele>
        <time>2021-07-30T18:55:43Z</time>
      </trkpt>
      <trkpt lat="48.76805" lon="-1.56798">
        <ele>0.62</ele>
        <time>2021-07-30T18:55:57Z</time>
      </trkpt>
      <trkpt lat="48.76699" lon="-1.56813">
        <ele>1.58</ele>
        <time>2021-07-30T18:56:09Z</time>
      </trkpt>
      <trkpt lat="48.76528" lon="-1.56839">
        <ele>2.54</ele>
        <time>2021-07-30T18:56:25Z</time>
      </trkpt>
      <trkpt lat="48.76379" lon="-1.56861">
        <ele>2.54</ele>
        <time>2021-07-30T18:56:39Z</time>
      </trkpt>
      <trkpt lat="48.76262" lon="-1.56879">
        <ele>2.06</ele>
        <time>2021-07-30T18:56:52Z</time>
      </trkpt>
      <trkpt lat="48.76121" lon="-1.56899">
        <ele>0.14</ele>
        <time>2021-07-30T18:57:05Z</time>
      </trkpt>
      <trkpt lat="48.76111" lon="-1.56899">
        <ele>0.14</ele>
        <time>2021-07-30T18:57:06Z</time>
      </trkpt>
      <trkpt lat="48.76101" lon="-1.56898">
        <ele>1.1</ele>
        <time>2021-07-30T18:57:07Z</time>
      </trkpt>
      <trkpt lat="48.76082" lon="-1.56889">
        <ele>1.58</ele>
        <time>2021-07-30T18:57:08Z</time>
      </trkpt>
      <trkpt lat="48.76082" lon="-1.56889">
        <ele>2.06</ele>
        <time>2021-07-30T18:57:09Z</time>
      </trkpt>
      <trkpt lat="48.76073" lon="-1.5688">
        <ele>2.06</ele>
        <time>2021-07-30T18:57:10Z</time>
      </trkpt>
      <trkpt lat="48.76064" lon="-1.5687">
        <ele>2.54</ele>
        <time>2021-07-30T18:57:11Z</time>
      </trkpt>
      <trkpt lat="48.76054" lon="-1.56859">
        <ele>3.5</ele>
        <time>2021-07-30T18:57:12Z</time>
      </trkpt>
      <trkpt lat="48.76044" lon="-1.56848">
        <ele>4.46</ele>
        <time>2021-07-30T18:57:13Z</time>
      </trkpt>
      <trkpt lat="48.75925" lon="-1.56692">
        <ele>17.44</ele>
        <time>2021-07-30T18:57:24Z</time>
      </trkpt>
      <trkpt lat="48.75792" lon="-1.56612">
        <ele>31.86</ele>
        <time>2021-07-30T18:57:33Z</time>
      </trkpt>
      <trkpt lat="48.7567" lon="-1.56577">
        <ele>45.8</ele>
        <time>2021-07-30T18:57:43Z</time>
      </trkpt>
      <trkpt lat="48.75519" lon="-1.56543">
        <ele>49.65</ele>
        <time>2021-07-30T18:57:55Z</time>
      </trkpt>
      <trkpt lat="48.75482" lon="-1.56525">
        <ele>52.05</ele>
        <time>2021-07-30T18:58:01Z</time>
      </trkpt>
      <trkpt lat="48.75423" lon="-1.56495">
        <ele>54.93</ele>
        <time>2021-07-30T18:58:09Z</time>
      </trkpt>
      <trkpt lat="48.75291" lon="-1.56424">
        <ele>53.49</ele>
        <time>2021-07-30T18:58:24Z</time>
      </trkpt>
      <trkpt lat="48.75232" lon="-1.56398">
        <ele>54.45</ele>
        <time>2021-07-30T18:58:34Z</time>
      </trkpt>
      <trkpt lat="48.75214" lon="-1.56382">
        <ele>53.97</ele>
        <time>2021-07-30T18:58:37Z</time>
      </trkpt>
      <trkpt lat="48.75209" lon="-1.56377">
        <ele>53.97</ele>
        <time>2021-07-30T18:58:38Z</time>
      </trkpt>
      <trkpt lat="48.75201" lon="-1.56361">
        <ele>53.97</ele>
        <time>2021-07-30T18:58:39Z</time>
      </trkpt>
      <trkpt lat="48.75201" lon="-1.56361">
        <ele>53.97</ele>
        <time>2021-07-30T18:58:40Z</time>
      </trkpt>
      <trkpt lat="48.75197" lon="-1.56352">
        <ele>53.49</ele>
        <time>2021-07-30T18:58:41Z</time>
      </trkpt>
      <trkpt lat="48.75193" lon="-1.56343">
        <ele>53.49</ele>
        <time>2021-07-30T18:58:42Z</time>
      </trkpt>
      <trkpt lat="48.7513" lon="-1.56198">
        <ele>49.65</ele>
        <time>2021-07-30T18:58:57Z</time>
      </trkpt>
      <trkpt lat="48.75113" lon="-1.56165">
        <ele>48.2</ele>
        <time>2021-07-30T18:59:00Z</time>
      </trkpt>
      <trkpt lat="48.75107" lon="-1.56156">
        <ele>47.72</ele>
        <time>2021-07-30T18:59:01Z</time>
      </trkpt>
      <trkpt lat="48.75032" lon="-1.56091">
        <ele>46.28</ele>
        <time>2021-07-30T18:59:13Z</time>
      </trkpt>
      <trkpt lat="48.75001" lon="-1.5606">
        <ele>45.32</ele>
        <time>2021-07-30T18:59:19Z</time>
      </trkpt>
      <trkpt lat="48.74995" lon="-1.56057">
        <ele>45.32</ele>
        <time>2021-07-30T18:59:20Z</time>
      </trkpt>
      <trkpt lat="48.7494" lon="-1.56035">
        <ele>44.84</ele>
        <time>2021-07-30T18:59:28Z</time>
      </trkpt>
      <trkpt lat="48.74906" lon="-1.56027">
        <ele>43.88</ele>
        <time>2021-07-30T18:59:33Z</time>
      </trkpt>
      <trkpt lat="48.749" lon="-1.56026">
        <ele>43.4</ele>
        <time>2021-07-30T18:59:34Z</time>
      </trkpt>
      <trkpt lat="48.74889" lon="-1.56018">
        <ele>43.4</ele>
        <time>2021-07-30T18:59:35Z</time>
      </trkpt>
      <trkpt lat="48.74889" lon="-1.56018">
        <ele>43.4</ele>
        <time>2021-07-30T18:59:36Z</time>
      </trkpt>
      <trkpt lat="48.74885" lon="-1.56014">
        <ele>43.4</ele>
        <time>2021-07-30T18:59:37Z</time>
      </trkpt>
      <trkpt lat="48.74883" lon="-1.56005">
        <ele>43.88</ele>
        <time>2021-07-30T18:59:38Z</time>
      </trkpt>
      <trkpt lat="48.74881" lon="-1.55996">
        <ele>43.4</ele>
        <time>2021-07-30T18:59:39Z</time>
      </trkpt>
      <trkpt lat="48.7488" lon="-1.55988">
        <ele>43.4</ele>
        <time>2021-07-30T18:59:40Z</time>
      </trkpt>
      <trkpt lat="48.7487" lon="-1.55903">
        <ele>47.24</ele>
        <time>2021-07-30T18:59:49Z</time>
      </trkpt>
      <trkpt lat="48.7487" lon="-1.55896">
        <ele>47.24</ele>
        <time>2021-07-30T18:59:50Z</time>
      </trkpt>
      <trkpt lat="48.74869" lon="-1.55889">
        <ele>47.72</ele>
        <time>2021-07-30T18:59:51Z</time>
      </trkpt>
      <trkpt lat="48.74862" lon="-1.55874">
        <ele>47.72</ele>
        <time>2021-07-30T18:59:52Z</time>
      </trkpt>
      <trkpt lat="48.74862" lon="-1.55874">
        <ele>47.24</ele>
        <time>2021-07-30T18:59:53Z</time>
      </trkpt>
      <trkpt lat="48.74857" lon="-1.5587">
        <ele>47.24</ele>
        <time>2021-07-30T18:59:54Z</time>
      </trkpt>
      <trkpt lat="48.7483" lon="-1.55846">
        <ele>46.76</ele>
        <time>2021-07-30T18:59:59Z</time>
      </trkpt>
      <trkpt lat="48.74821" lon="-1.55839">
        <ele>46.76</ele>
        <time>2021-07-30T19:00:00Z</time>
      </trkpt>
      <trkpt lat="48.74816" lon="-1.55839">
        <ele>46.76</ele>
        <time>2021-07-30T19:00:01Z</time>
      </trkpt>
      <trkpt lat="48.74816" lon="-1.55839">
        <ele>46.28</ele>
        <time>2021-07-30T19:00:02Z</time>
      </trkpt>
      <trkpt lat="48.74812" lon="-1.55843">
        <ele>46.28</ele>
        <time>2021-07-30T19:00:03Z</time>
      </trkpt>
      <trkpt lat="48.74807" lon="-1.55849">
        <ele>45.8</ele>
        <time>2021-07-30T19:00:04Z</time>
      </trkpt>
      <trkpt lat="48.74724" lon="-1.55924">
        <ele>44.36</ele>
        <time>2021-07-30T19:00:16Z</time>
      </trkpt>
      <trkpt lat="48.74628" lon="-1.55949">
        <ele>38.11</ele>
        <time>2021-07-30T19:00:26Z</time>
      </trkpt>
      <trkpt lat="48.7459" lon="-1.55958">
        <ele>37.63</ele>
        <time>2021-07-30T19:00:29Z</time>
      </trkpt>
      <trkpt lat="48.7459" lon="-1.55958">
        <ele>37.63</ele>
        <time>2021-07-30T19:00:30Z</time>
      </trkpt>
      <trkpt lat="48.74573" lon="-1.55958">
        <ele>38.11</ele>
        <time>2021-07-30T19:00:31Z</time>
      </trkpt>
      <trkpt lat="48.74502" lon="-1.55953">
        <ele>34.74</ele>
        <time>2021-07-30T19:00:41Z</time>
      </trkpt>
      <trkpt lat="48.74434" lon="-1.55955">
        <ele>33.78</ele>
        <time>2021-07-30T19:00:48Z</time>
      </trkpt>
      <trkpt lat="48.74422" lon="-1.55955">
        <ele>33.78</ele>
        <time>2021-07-30T19:00:49Z</time>
      </trkpt>
      <trkpt lat="48.74412" lon="-1.55951">
        <ele>34.26</ele>
        <time>2021-07-30T19:00:50Z</time>
      </trkpt>
      <trkpt lat="48.74391" lon="-1.55943">
        <ele>34.74</ele>
        <time>2021-07-30T19:00:52Z</time>
      </trkpt>
      <trkpt lat="48.74381" lon="-1.55938">
        <ele>36.67</ele>
        <time>2021-07-30T19:00:53Z</time>
      </trkpt>
      <trkpt lat="48.74371" lon="-1.55934">
        <ele>36.19</ele>
        <time>2021-07-30T19:00:54Z</time>
      </trkpt>
      <trkpt lat="48.74362" lon="-1.5593">
        <ele>37.15</ele>
        <time>2021-07-30T19:00:55Z</time>
      </trkpt>
      <trkpt lat="48.74352" lon="-1.55926">
        <ele>37.63</ele>
        <time>2021-07-30T19:00:56Z</time>
      </trkpt>
      <trkpt lat="48.74346" lon="-1.55919">
        <ele>38.11</ele>
        <time>2021-07-30T19:00:57Z</time>
      </trkpt>
      <trkpt lat="48.74338" lon="-1.55911">
        <ele>39.07</ele>
        <time>2021-07-30T19:00:58Z</time>
      </trkpt>
      <trkpt lat="48.74331" lon="-1.55903">
        <ele>39.07</ele>
        <time>2021-07-30T19:00:59Z</time>
      </trkpt>
      <trkpt lat="48.74315" lon="-1.55885">
        <ele>40.99</ele>
        <time>2021-07-30T19:01:01Z</time>
      </trkpt>
      <trkpt lat="48.74294" lon="-1.55871">
        <ele>41.95</ele>
        <time>2021-07-30T19:01:02Z</time>
      </trkpt>
      <trkpt lat="48.74294" lon="-1.55871">
        <ele>42.44</ele>
        <time>2021-07-30T19:01:03Z</time>
      </trkpt>
      <trkpt lat="48.74259" lon="-1.55855">
        <ele>44.84</ele>
        <time>2021-07-30T19:01:06Z</time>
      </trkpt>
      <trkpt lat="48.74249" lon="-1.55847">
        <ele>45.32</ele>
        <time>2021-07-30T19:01:07Z</time>
      </trkpt>
      <trkpt lat="48.7424" lon="-1.55839">
        <ele>46.28</ele>
        <time>2021-07-30T19:01:08Z</time>
      </trkpt>
      <trkpt lat="48.74232" lon="-1.55831">
        <ele>46.76</ele>
        <time>2021-07-30T19:01:09Z</time>
      </trkpt>
      <trkpt lat="48.74224" lon="-1.55818">
        <ele>47.24</ele>
        <time>2021-07-30T19:01:10Z</time>
      </trkpt>
      <trkpt lat="48.74218" lon="-1.55802">
        <ele>48.2</ele>
        <time>2021-07-30T19:01:11Z</time>
      </trkpt>
      <trkpt lat="48.74212" lon="-1.55787">
        <ele>48.68</ele>
        <time>2021-07-30T19:01:12Z</time>
      </trkpt>
      <trkpt lat="48.74206" lon="-1.55773">
        <ele>48.68</ele>
        <time>2021-07-30T19:01:13Z</time>
      </trkpt>
      <trkpt lat="48.742" lon="-1.55759">
        <ele>48.2</ele>
        <time>2021-07-30T19:01:14Z</time>
      </trkpt>
      <trkpt lat="48.74193" lon="-1.55743">
        <ele>48.68</ele>
        <time>2021-07-30T19:01:15Z</time>
      </trkpt>
      <trkpt lat="48.74186" lon="-1.55731">
        <ele>49.65</ele>
        <time>2021-07-30T19:01:16Z</time>
      </trkpt>
      <trkpt lat="48.74178" lon="-1.55722">
        <ele>51.09</ele>
        <time>2021-07-30T19:01:17Z</time>
      </trkpt>
      <trkpt lat="48.74168" lon="-1.55719">
        <ele>52.05</ele>
        <time>2021-07-30T19:01:18Z</time>
      </trkpt>
      <trkpt lat="48.74158" lon="-1.55716">
        <ele>54.45</ele>
        <time>2021-07-30T19:01:19Z</time>
      </trkpt>
      <trkpt lat="48.74146" lon="-1.55713">
        <ele>53.97</ele>
        <time>2021-07-30T19:01:20Z</time>
      </trkpt>
      <trkpt lat="48.74135" lon="-1.5571">
        <ele>55.41</ele>
        <time>2021-07-30T19:01:21Z</time>
      </trkpt>
      <trkpt lat="48.74125" lon="-1.55706">
        <ele>57.34</ele>
        <time>2021-07-30T19:01:22Z</time>
      </trkpt>
      <trkpt lat="48.74075" lon="-1.55673">
        <ele>61.18</ele>
        <time>2021-07-30T19:01:27Z</time>
      </trkpt>
      <trkpt lat="48.74068" lon="-1.5567">
        <ele>61.18</ele>
        <time>2021-07-30T19:01:28Z</time>
      </trkpt>
      <trkpt lat="48.74053" lon="-1.55663">
        <ele>61.66</ele>
        <time>2021-07-30T19:01:38Z</time>
      </trkpt>
      <trkpt lat="48.74014" lon="-1.55635">
        <ele>66.47</ele>
        <time>2021-07-30T19:01:47Z</time>
      </trkpt>
      <trkpt lat="48.73941" lon="-1.5556">
        <ele>68.39</ele>
        <time>2021-07-30T19:01:55Z</time>
      </trkpt>
      <trkpt lat="48.73826" lon="-1.55386">
        <ele>72.72</ele>
        <time>2021-07-30T19:02:09Z</time>
      </trkpt>
      <trkpt lat="48.73733" lon="-1.55181">
        <ele>72.72</ele>
        <time>2021-07-30T19:02:21Z</time>
      </trkpt>
      <trkpt lat="48.73712" lon="-1.55147">
        <ele>73.68</ele>
        <time>2021-07-30T19:02:23Z</time>
      </trkpt>
      <trkpt lat="48.73702" lon="-1.55132">
        <ele>73.2</ele>
        <time>2021-07-30T19:02:24Z</time>
      </trkpt>
      <trkpt lat="48.7367" lon="-1.55092">
        <ele>74.16</ele>
        <time>2021-07-30T19:02:27Z</time>
      </trkpt>
      <trkpt lat="48.73662" lon="-1.55074">
        <ele>74.16</ele>
        <time>2021-07-30T19:02:28Z</time>
      </trkpt>
      <trkpt lat="48.73638" lon="-1.55023">
        <ele>75.12</ele>
        <time>2021-07-30T19:02:31Z</time>
      </trkpt>
      <trkpt lat="48.73628" lon="-1.55011">
        <ele>75.6</ele>
        <time>2021-07-30T19:02:32Z</time>
      </trkpt>
      <trkpt lat="48.73564" lon="-1.54935">
        <ele>76.56</ele>
        <time>2021-07-30T19:02:38Z</time>
      </trkpt>
      <trkpt lat="48.73554" lon="-1.54921">
        <ele>76.56</ele>
        <time>2021-07-30T19:02:39Z</time>
      </trkpt>
      <trkpt lat="48.73489" lon="-1.54808">
        <ele>76.08</ele>
        <time>2021-07-30T19:02:48Z</time>
      </trkpt>
      <trkpt lat="48.73484" lon="-1.54794">
        <ele>76.08</ele>
        <time>2021-07-30T19:02:55Z</time>
      </trkpt>
      <trkpt lat="48.73484" lon="-1.54794">
        <ele>75.6</ele>
        <time>2021-07-30T19:03:45Z</time>
      </trkpt>
      <trkpt lat="48.73483" lon="-1.54791">
        <ele>75.6</ele>
        <time>2021-07-30T19:03:46Z</time>
      </trkpt>
      <trkpt lat="48.73481" lon="-1.54787">
        <ele>75.6</ele>
        <time>2021-07-30T19:03:47Z</time>
      </trkpt>
      <trkpt lat="48.73475" lon="-1.54768">
        <ele>75.6</ele>
        <time>2021-07-30T19:03:50Z</time>
      </trkpt>
      <trkpt lat="48.73472" lon="-1.5476">
        <ele>75.6</ele>
        <time>2021-07-30T19:03:51Z</time>
      </trkpt>
      <trkpt lat="48.7347" lon="-1.54751">
        <ele>75.6</ele>
        <time>2021-07-30T19:03:52Z</time>
      </trkpt>
      <trkpt lat="48.73461" lon="-1.54689">
        <ele>75.6</ele>
        <time>2021-07-30T19:03:57Z</time>
      </trkpt>
      <trkpt lat="48.73459" lon="-1.54677">
        <ele>77.04</ele>
        <time>2021-07-30T19:03:58Z</time>
      </trkpt>
      <trkpt lat="48.73453" lon="-1.54665">
        <ele>77.04</ele>
        <time>2021-07-30T19:03:59Z</time>
      </trkpt>
      <trkpt lat="48.73448" lon="-1.54652">
        <ele>77.04</ele>
        <time>2021-07-30T19:04:00Z</time>
      </trkpt>
      <trkpt lat="48.73442" lon="-1.54638">
        <ele>77.04</ele>
        <time>2021-07-30T19:04:01Z</time>
      </trkpt>
      <trkpt lat="48.73431" lon="-1.54614">
        <ele>76.56</ele>
        <time>2021-07-30T19:04:03Z</time>
      </trkpt>
      <trkpt lat="48.73427" lon="-1.54602">
        <ele>76.56</ele>
        <time>2021-07-30T19:04:04Z</time>
      </trkpt>
      <trkpt lat="48.73423" lon="-1.54589">
        <ele>76.56</ele>
        <time>2021-07-30T19:04:05Z</time>
      </trkpt>
      <trkpt lat="48.7342" lon="-1.54573">
        <ele>76.56</ele>
        <time>2021-07-30T19:04:06Z</time>
      </trkpt>
      <trkpt lat="48.73418" lon="-1.54556">
        <ele>76.56</ele>
        <time>2021-07-30T19:04:07Z</time>
      </trkpt>
      <trkpt lat="48.73411" lon="-1.54359">
        <ele>77.52</ele>
        <time>2021-07-30T19:04:18Z</time>
      </trkpt>
      <trkpt lat="48.7337" lon="-1.54113">
        <ele>79.93</ele>
        <time>2021-07-30T19:04:32Z</time>
      </trkpt>
      <trkpt lat="48.73359" lon="-1.54053">
        <ele>81.37</ele>
        <time>2021-07-30T19:04:38Z</time>
      </trkpt>
      <trkpt lat="48.73358" lon="-1.54047">
        <ele>81.85</ele>
        <time>2021-07-30T19:04:50Z</time>
      </trkpt>
      <trkpt lat="48.73353" lon="-1.54018">
        <ele>82.33</ele>
        <time>2021-07-30T19:05:07Z</time>
      </trkpt>
      <trkpt lat="48.73347" lon="-1.53901">
        <ele>81.37</ele>
        <time>2021-07-30T19:05:16Z</time>
      </trkpt>
      <trkpt lat="48.73354" lon="-1.53707">
        <ele>80.89</ele>
        <time>2021-07-30T19:05:26Z</time>
      </trkpt>
      <trkpt lat="48.73369" lon="-1.53585">
        <ele>81.85</ele>
        <time>2021-07-30T19:05:35Z</time>
      </trkpt>
      <trkpt lat="48.73393" lon="-1.53474">
        <ele>80.89</ele>
        <time>2021-07-30T19:05:47Z</time>
      </trkpt>
      <trkpt lat="48.73424" lon="-1.53322">
        <ele>83.29</ele>
        <time>2021-07-30T19:06:00Z</time>
      </trkpt>
      <trkpt lat="48.73454" lon="-1.53186">
        <ele>84.25</ele>
        <time>2021-07-30T19:06:10Z</time>
      </trkpt>
      <trkpt lat="48.73456" lon="-1.5318">
        <ele>84.73</ele>
        <time>2021-07-30T19:06:11Z</time>
      </trkpt>
      <trkpt lat="48.73453" lon="-1.53174">
        <ele>84.73</ele>
        <time>2021-07-30T19:06:12Z</time>
      </trkpt>
      <trkpt lat="48.7345" lon="-1.53166">
        <ele>84.25</ele>
        <time>2021-07-30T19:06:13Z</time>
      </trkpt>
      <trkpt lat="48.73445" lon="-1.53158">
        <ele>84.25</ele>
        <time>2021-07-30T19:06:14Z</time>
      </trkpt>
      <trkpt lat="48.73409" lon="-1.53081">
        <ele>81.37</ele>
        <time>2021-07-30T19:06:20Z</time>
      </trkpt>
      <trkpt lat="48.73409" lon="-1.53081">
        <ele>81.37</ele>
        <time>2021-07-30T19:06:21Z</time>
      </trkpt>
      <trkpt lat="48.73394" lon="-1.53076">
        <ele>80.41</ele>
        <time>2021-07-30T19:06:22Z</time>
      </trkpt>
      <trkpt lat="48.73394" lon="-1.53076">
        <ele>79.93</ele>
        <time>2021-07-30T19:06:23Z</time>
      </trkpt>
      <trkpt lat="48.73385" lon="-1.53077">
        <ele>79.93</ele>
        <time>2021-07-30T19:06:24Z</time>
      </trkpt>
      <trkpt lat="48.73376" lon="-1.53086">
        <ele>79.93</ele>
        <time>2021-07-30T19:06:25Z</time>
      </trkpt>
      <trkpt lat="48.73368" lon="-1.53095">
        <ele>79.45</ele>
        <time>2021-07-30T19:06:26Z</time>
      </trkpt>
      <trkpt lat="48.73328" lon="-1.53134">
        <ele>78.48</ele>
        <time>2021-07-30T19:06:31Z</time>
      </trkpt>
      <trkpt lat="48.73321" lon="-1.53139">
        <ele>77.52</ele>
        <time>2021-07-30T19:06:32Z</time>
      </trkpt>
      <trkpt lat="48.73313" lon="-1.5314">
        <ele>77.04</ele>
        <time>2021-07-30T19:06:33Z</time>
      </trkpt>
      <trkpt lat="48.73306" lon="-1.53141">
        <ele>76.56</ele>
        <time>2021-07-30T19:06:34Z</time>
      </trkpt>
      <trkpt lat="48.73298" lon="-1.53143">
        <ele>76.08</ele>
        <time>2021-07-30T19:06:35Z</time>
      </trkpt>
      <trkpt lat="48.73292" lon="-1.53143">
        <ele>75.12</ele>
        <time>2021-07-30T19:06:36Z</time>
      </trkpt>
      <trkpt lat="48.73285" lon="-1.53139">
        <ele>74.64</ele>
        <time>2021-07-30T19:06:37Z</time>
      </trkpt>
      <trkpt lat="48.73278" lon="-1.53136">
        <ele>74.16</ele>
        <time>2021-07-30T19:06:38Z</time>
      </trkpt>
      <trkpt lat="48.7319" lon="-1.53085">
        <ele>69.35</ele>
        <time>2021-07-30T19:06:51Z</time>
      </trkpt>
      <trkpt lat="48.73185" lon="-1.5308">
        <ele>68.87</ele>
        <time>2021-07-30T19:06:52Z</time>
      </trkpt>
      <trkpt lat="48.73181" lon="-1.53072">
        <ele>68.39</ele>
        <time>2021-07-30T19:06:53Z</time>
      </trkpt>
      <trkpt lat="48.73178" lon="-1.53064">
        <ele>67.91</ele>
        <time>2021-07-30T19:06:54Z</time>
      </trkpt>
      <trkpt lat="48.73174" lon="-1.53056">
        <ele>67.43</ele>
        <time>2021-07-30T19:06:55Z</time>
      </trkpt>
      <trkpt lat="48.7317" lon="-1.53048">
        <ele>66.95</ele>
        <time>2021-07-30T19:06:56Z</time>
      </trkpt>
      <trkpt lat="48.73168" lon="-1.5304">
        <ele>66.47</ele>
        <time>2021-07-30T19:06:57Z</time>
      </trkpt>
      <trkpt lat="48.73167" lon="-1.5303">
        <ele>65.99</ele>
        <time>2021-07-30T19:06:58Z</time>
      </trkpt>
      <trkpt lat="48.73155" lon="-1.52882">
        <ele>60.22</ele>
        <time>2021-07-30T19:07:11Z</time>
      </trkpt>
      <trkpt lat="48.73155" lon="-1.52869">
        <ele>59.26</ele>
        <time>2021-07-30T19:07:12Z</time>
      </trkpt>
      <trkpt lat="48.73155" lon="-1.52855">
        <ele>58.78</ele>
        <time>2021-07-30T19:07:13Z</time>
      </trkpt>
      <trkpt lat="48.73158" lon="-1.52841">
        <ele>57.82</ele>
        <time>2021-07-30T19:07:14Z</time>
      </trkpt>
      <trkpt lat="48.73161" lon="-1.52826">
        <ele>56.86</ele>
        <time>2021-07-30T19:07:15Z</time>
      </trkpt>
      <trkpt lat="48.73164" lon="-1.52809">
        <ele>55.41</ele>
        <time>2021-07-30T19:07:16Z</time>
      </trkpt>
      <trkpt lat="48.73171" lon="-1.52775">
        <ele>54.45</ele>
        <time>2021-07-30T19:07:18Z</time>
      </trkpt>
      <trkpt lat="48.73174" lon="-1.52759">
        <ele>53.97</ele>
        <time>2021-07-30T19:07:19Z</time>
      </trkpt>
      <trkpt lat="48.73188" lon="-1.52551">
        <ele>43.88</ele>
        <time>2021-07-30T19:07:31Z</time>
      </trkpt>
      <trkpt lat="48.73191" lon="-1.52535">
        <ele>42.44</ele>
        <time>2021-07-30T19:07:32Z</time>
      </trkpt>
      <trkpt lat="48.73197" lon="-1.525">
        <ele>40.03</ele>
        <time>2021-07-30T19:07:34Z</time>
      </trkpt>
      <trkpt lat="48.732" lon="-1.52484">
        <ele>40.03</ele>
        <time>2021-07-30T19:07:35Z</time>
      </trkpt>
      <trkpt lat="48.73201" lon="-1.5247">
        <ele>38.59</ele>
        <time>2021-07-30T19:07:36Z</time>
      </trkpt>
      <trkpt lat="48.73201" lon="-1.52454">
        <ele>37.15</ele>
        <time>2021-07-30T19:07:37Z</time>
      </trkpt>
      <trkpt lat="48.73201" lon="-1.52437">
        <ele>36.19</ele>
        <time>2021-07-30T19:07:38Z</time>
      </trkpt>
      <trkpt lat="48.73198" lon="-1.52423">
        <ele>35.71</ele>
        <time>2021-07-30T19:07:39Z</time>
      </trkpt>
      <trkpt lat="48.73194" lon="-1.52408">
        <ele>34.26</ele>
        <time>2021-07-30T19:07:40Z</time>
      </trkpt>
      <trkpt lat="48.7319" lon="-1.52391">
        <ele>33.78</ele>
        <time>2021-07-30T19:07:41Z</time>
      </trkpt>
      <trkpt lat="48.73163" lon="-1.52256">
        <ele>27.53</ele>
        <time>2021-07-30T19:07:49Z</time>
      </trkpt>
      <trkpt lat="48.73162" lon="-1.52241">
        <ele>26.57</ele>
        <time>2021-07-30T19:07:50Z</time>
      </trkpt>
      <trkpt lat="48.73161" lon="-1.52227">
        <ele>25.61</ele>
        <time>2021-07-30T19:07:51Z</time>
      </trkpt>
      <trkpt lat="48.73161" lon="-1.52213">
        <ele>25.13</ele>
        <time>2021-07-30T19:07:52Z</time>
      </trkpt>
      <trkpt lat="48.73161" lon="-1.52202">
        <ele>24.17</ele>
        <time>2021-07-30T19:07:53Z</time>
      </trkpt>
      <trkpt lat="48.73159" lon="-1.52159">
        <ele>21.29</ele>
        <time>2021-07-30T19:08:00Z</time>
      </trkpt>
      <trkpt lat="48.73156" lon="-1.52154">
        <ele>21.29</ele>
        <time>2021-07-30T19:08:01Z</time>
      </trkpt>
      <trkpt lat="48.73153" lon="-1.52148">
        <ele>20.81</ele>
        <time>2021-07-30T19:08:02Z</time>
      </trkpt>
      <trkpt lat="48.73149" lon="-1.52141">
        <ele>20.81</ele>
        <time>2021-07-30T19:08:03Z</time>
      </trkpt>
      <trkpt lat="48.73145" lon="-1.52134">
        <ele>19.84</ele>
        <time>2021-07-30T19:08:04Z</time>
      </trkpt>
      <trkpt lat="48.73126" lon="-1.52102">
        <ele>19.84</ele>
        <time>2021-07-30T19:08:08Z</time>
      </trkpt>
      <trkpt lat="48.73122" lon="-1.52094">
        <ele>19.36</ele>
        <time>2021-07-30T19:08:09Z</time>
      </trkpt>
      <trkpt lat="48.73117" lon="-1.52086">
        <ele>18.88</ele>
        <time>2021-07-30T19:08:10Z</time>
      </trkpt>
      <trkpt lat="48.73059" lon="-1.519">
        <ele>13.12</ele>
        <time>2021-07-30T19:08:27Z</time>
      </trkpt>
      <trkpt lat="48.73049" lon="-1.51881">
        <ele>11.67</ele>
        <time>2021-07-30T19:08:29Z</time>
      </trkpt>
      <trkpt lat="48.73049" lon="-1.51881">
        <ele>11.19</ele>
        <time>2021-07-30T19:08:30Z</time>
      </trkpt>
      <trkpt lat="48.73046" lon="-1.51878">
        <ele>10.71</ele>
        <time>2021-07-30T19:08:31Z</time>
      </trkpt>
      <trkpt lat="48.73043" lon="-1.51876">
        <ele>10.71</ele>
        <time>2021-07-30T19:08:32Z</time>
      </trkpt>
      <trkpt lat="48.73041" lon="-1.51874">
        <ele>10.71</ele>
        <time>2021-07-30T19:08:33Z</time>
      </trkpt>
      <trkpt lat="48.73026" lon="-1.51863">
        <ele>9.27</ele>
        <time>2021-07-30T19:08:42Z</time>
      </trkpt>
      <trkpt lat="48.72956" lon="-1.51817">
        <ele>5.91</ele>
        <time>2021-07-30T19:08:56Z</time>
      </trkpt>
      <trkpt lat="48.72882" lon="-1.51754">
        <ele>6.39</ele>
        <time>2021-07-30T19:09:06Z</time>
      </trkpt>
      <trkpt lat="48.72882" lon="-1.51754">
        <ele>6.39</ele>
        <time>2021-07-30T19:09:07Z</time>
      </trkpt>
      <trkpt lat="48.72877" lon="-1.51744">
        <ele>6.87</ele>
        <time>2021-07-30T19:09:08Z</time>
      </trkpt>
      <trkpt lat="48.72872" lon="-1.51734">
        <ele>6.87</ele>
        <time>2021-07-30T19:09:09Z</time>
      </trkpt>
      <trkpt lat="48.7287" lon="-1.51721">
        <ele>6.87</ele>
        <time>2021-07-30T19:09:10Z</time>
      </trkpt>
      <trkpt lat="48.72868" lon="-1.51706">
        <ele>6.87</ele>
        <time>2021-07-30T19:09:11Z</time>
      </trkpt>
      <trkpt lat="48.72865" lon="-1.51692">
        <ele>6.87</ele>
        <time>2021-07-30T19:09:12Z</time>
      </trkpt>
      <trkpt lat="48.72848" lon="-1.51585">
        <ele>10.23</ele>
        <time>2021-07-30T19:09:22Z</time>
      </trkpt>
      <trkpt lat="48.72819" lon="-1.51496">
        <ele>15.04</ele>
        <time>2021-07-30T19:09:29Z</time>
      </trkpt>
      <trkpt lat="48.72805" lon="-1.51468">
        <ele>16.48</ele>
        <time>2021-07-30T19:09:30Z</time>
      </trkpt>
      <trkpt lat="48.72796" lon="-1.51456">
        <ele>16.96</ele>
        <time>2021-07-30T19:09:31Z</time>
      </trkpt>
      <trkpt lat="48.72796" lon="-1.51456">
        <ele>17.44</ele>
        <time>2021-07-30T19:09:32Z</time>
      </trkpt>
      <trkpt lat="48.72787" lon="-1.51444">
        <ele>18.4</ele>
        <time>2021-07-30T19:09:33Z</time>
      </trkpt>
      <trkpt lat="48.72693" lon="-1.51324">
        <ele>23.69</ele>
        <time>2021-07-30T19:09:43Z</time>
      </trkpt>
      <trkpt lat="48.72628" lon="-1.51178">
        <ele>27.53</ele>
        <time>2021-07-30T19:09:52Z</time>
      </trkpt>
      <trkpt lat="48.72541" lon="-1.50995">
        <ele>32.34</ele>
        <time>2021-07-30T19:10:02Z</time>
      </trkpt>
      <trkpt lat="48.7243" lon="-1.50818">
        <ele>32.34</ele>
        <time>2021-07-30T19:10:12Z</time>
      </trkpt>
      <trkpt lat="48.72374" lon="-1.50737">
        <ele>30.9</ele>
        <time>2021-07-30T19:10:17Z</time>
      </trkpt>
      <trkpt lat="48.72363" lon="-1.50724">
        <ele>31.86</ele>
        <time>2021-07-30T19:10:18Z</time>
      </trkpt>
      <trkpt lat="48.72349" lon="-1.50718">
        <ele>32.82</ele>
        <time>2021-07-30T19:10:19Z</time>
      </trkpt>
      <trkpt lat="48.72337" lon="-1.50713">
        <ele>32.34</ele>
        <time>2021-07-30T19:10:20Z</time>
      </trkpt>
      <trkpt lat="48.72323" lon="-1.50708">
        <ele>32.82</ele>
        <time>2021-07-30T19:10:21Z</time>
      </trkpt>
      <trkpt lat="48.7231" lon="-1.50706">
        <ele>33.3</ele>
        <time>2021-07-30T19:10:22Z</time>
      </trkpt>
      <trkpt lat="48.72172" lon="-1.50684">
        <ele>39.55</ele>
        <time>2021-07-30T19:10:31Z</time>
      </trkpt>
      <trkpt lat="48.72059" lon="-1.50593">
        <ele>39.55</ele>
        <time>2021-07-30T19:10:40Z</time>
      </trkpt>
      <trkpt lat="48.71947" lon="-1.50414">
        <ele>34.74</ele>
        <time>2021-07-30T19:10:51Z</time>
      </trkpt>
      <trkpt lat="48.71935" lon="-1.50401">
        <ele>34.26</ele>
        <time>2021-07-30T19:10:52Z</time>
      </trkpt>
      <trkpt lat="48.71923" lon="-1.50387">
        <ele>35.23</ele>
        <time>2021-07-30T19:10:53Z</time>
      </trkpt>
      <trkpt lat="48.71761" lon="-1.50261">
        <ele>34.26</ele>
        <time>2021-07-30T19:11:05Z</time>
      </trkpt>
      <trkpt lat="48.71682" lon="-1.50149">
        <ele>32.34</ele>
        <time>2021-07-30T19:11:12Z</time>
      </trkpt>
      <trkpt lat="48.71656" lon="-1.50122">
        <ele>31.86</ele>
        <time>2021-07-30T19:11:13Z</time>
      </trkpt>
      <trkpt lat="48.71528" lon="-1.50025">
        <ele>39.55</ele>
        <time>2021-07-30T19:11:24Z</time>
      </trkpt>
      <trkpt lat="48.71396" lon="-1.4995">
        <ele>39.55</ele>
        <time>2021-07-30T19:11:35Z</time>
      </trkpt>
      <trkpt lat="48.71338" lon="-1.49935">
        <ele>37.63</ele>
        <time>2021-07-30T19:11:42Z</time>
      </trkpt>
      <trkpt lat="48.71321" lon="-1.49932">
        <ele>37.15</ele>
        <time>2021-07-30T19:11:45Z</time>
      </trkpt>
      <trkpt lat="48.7126" lon="-1.49929">
        <ele>34.74</ele>
        <time>2021-07-30T19:11:57Z</time>
      </trkpt>
      <trkpt lat="48.71246" lon="-1.49888">
        <ele>34.26</ele>
        <time>2021-07-30T19:12:07Z</time>
      </trkpt>
      <trkpt lat="48.71217" lon="-1.49783">
        <ele>36.67</ele>
        <time>2021-07-30T19:12:17Z</time>
      </trkpt>
      <trkpt lat="48.71179" lon="-1.49713">
        <ele>38.59</ele>
        <time>2021-07-30T19:12:24Z</time>
      </trkpt>
      <trkpt lat="48.71172" lon="-1.49706">
        <ele>39.07</ele>
        <time>2021-07-30T19:12:25Z</time>
      </trkpt>
      <trkpt lat="48.71166" lon="-1.497">
        <ele>39.07</ele>
        <time>2021-07-30T19:12:26Z</time>
      </trkpt>
      <trkpt lat="48.71159" lon="-1.49697">
        <ele>39.07</ele>
        <time>2021-07-30T19:12:27Z</time>
      </trkpt>
      <trkpt lat="48.71153" lon="-1.49693">
        <ele>39.55</ele>
        <time>2021-07-30T19:12:28Z</time>
      </trkpt>
      <trkpt lat="48.71138" lon="-1.49688">
        <ele>39.55</ele>
        <time>2021-07-30T19:12:29Z</time>
      </trkpt>
      <trkpt lat="48.71131" lon="-1.49687">
        <ele>40.03</ele>
        <time>2021-07-30T19:12:30Z</time>
      </trkpt>
      <trkpt lat="48.71095" lon="-1.49672">
        <ele>40.99</ele>
        <time>2021-07-30T19:12:36Z</time>
      </trkpt>
      <trkpt lat="48.71087" lon="-1.49666">
        <ele>41.47</ele>
        <time>2021-07-30T19:12:37Z</time>
      </trkpt>
      <trkpt lat="48.7108" lon="-1.49659">
        <ele>41.95</ele>
        <time>2021-07-30T19:12:38Z</time>
      </trkpt>
      <trkpt lat="48.70998" lon="-1.49548">
        <ele>42.44</ele>
        <time>2021-07-30T19:12:49Z</time>
      </trkpt>
      <trkpt lat="48.70882" lon="-1.49406">
        <ele>43.4</ele>
        <time>2021-07-30T19:13:03Z</time>
      </trkpt>
      <trkpt lat="48.70719" lon="-1.49254">
        <ele>43.4</ele>
        <time>2021-07-30T19:13:18Z</time>
      </trkpt>
      <trkpt lat="48.70556" lon="-1.49093">
        <ele>35.71</ele>
        <time>2021-07-30T19:13:32Z</time>
      </trkpt>
      <trkpt lat="48.70385" lon="-1.48875">
        <ele>22.25</ele>
        <time>2021-07-30T19:13:45Z</time>
      </trkpt>
      <trkpt lat="48.70172" lon="-1.48587">
        <ele>13.12</ele>
        <time>2021-07-30T19:14:02Z</time>
      </trkpt>
      <trkpt lat="48.70033" lon="-1.48405">
        <ele>11.19</ele>
        <time>2021-07-30T19:14:13Z</time>
      </trkpt>
      <trkpt lat="48.70018" lon="-1.48392">
        <ele>11.67</ele>
        <time>2021-07-30T19:14:14Z</time>
      </trkpt>
      <trkpt lat="48.70004" lon="-1.48382">
        <ele>10.71</ele>
        <time>2021-07-30T19:14:15Z</time>
      </trkpt>
      <trkpt lat="48.6999" lon="-1.48381">
        <ele>10.71</ele>
        <time>2021-07-30T19:14:16Z</time>
      </trkpt>
      <trkpt lat="48.69973" lon="-1.48379">
        <ele>11.19</ele>
        <time>2021-07-30T19:14:17Z</time>
      </trkpt>
      <trkpt lat="48.69959" lon="-1.48378">
        <ele>12.15</ele>
        <time>2021-07-30T19:14:18Z</time>
      </trkpt>
      <trkpt lat="48.6993" lon="-1.48375">
        <ele>13.12</ele>
        <time>2021-07-30T19:14:20Z</time>
      </trkpt>
      <trkpt lat="48.69915" lon="-1.48374">
        <ele>13.6</ele>
        <time>2021-07-30T19:14:21Z</time>
      </trkpt>
      <trkpt lat="48.69901" lon="-1.48368">
        <ele>14.08</ele>
        <time>2021-07-30T19:14:22Z</time>
      </trkpt>
      <trkpt lat="48.69886" lon="-1.48361">
        <ele>14.08</ele>
        <time>2021-07-30T19:14:23Z</time>
      </trkpt>
      <trkpt lat="48.69872" lon="-1.48348">
        <ele>13.6</ele>
        <time>2021-07-30T19:14:24Z</time>
      </trkpt>
      <trkpt lat="48.69857" lon="-1.48335">
        <ele>15.04</ele>
        <time>2021-07-30T19:14:25Z</time>
      </trkpt>
      <trkpt lat="48.69727" lon="-1.48237">
        <ele>14.56</ele>
        <time>2021-07-30T19:14:34Z</time>
      </trkpt>
      <trkpt lat="48.69484" lon="-1.48111">
        <ele>15.04</ele>
        <time>2021-07-30T19:14:47Z</time>
      </trkpt>
      <trkpt lat="48.69343" lon="-1.48073">
        <ele>12.63</ele>
        <time>2021-07-30T19:14:56Z</time>
      </trkpt>
      <trkpt lat="48.69127" lon="-1.48001">
        <ele>10.23</ele>
        <time>2021-07-30T19:15:08Z</time>
      </trkpt>
      <trkpt lat="48.69111" lon="-1.47999">
        <ele>11.19</ele>
        <time>2021-07-30T19:15:09Z</time>
      </trkpt>
      <trkpt lat="48.69014" lon="-1.47986">
        <ele>12.15</ele>
        <time>2021-07-30T19:15:16Z</time>
      </trkpt>
      <trkpt lat="48.68895" lon="-1.47968">
        <ele>10.23</ele>
        <time>2021-07-30T19:15:27Z</time>
      </trkpt>
      <trkpt lat="48.68824" lon="-1.47966">
        <ele>12.15</ele>
        <time>2021-07-30T19:15:36Z</time>
      </trkpt>
      <trkpt lat="48.68749" lon="-1.47973">
        <ele>11.67</ele>
        <time>2021-07-30T19:15:46Z</time>
      </trkpt>
      <trkpt lat="48.6865" lon="-1.47988">
        <ele>13.6</ele>
        <time>2021-07-30T19:15:58Z</time>
      </trkpt>
      <trkpt lat="48.68639" lon="-1.47987">
        <ele>13.6</ele>
        <time>2021-07-30T19:16:00Z</time>
      </trkpt>
      <trkpt lat="48.68635" lon="-1.47987">
        <ele>13.6</ele>
        <time>2021-07-30T19:16:01Z</time>
      </trkpt>
      <trkpt lat="48.68631" lon="-1.47987">
        <ele>13.6</ele>
        <time>2021-07-30T19:16:02Z</time>
      </trkpt>
      <trkpt lat="48.6863" lon="-1.47995">
        <ele>13.6</ele>
        <time>2021-07-30T19:16:03Z</time>
      </trkpt>
      <trkpt lat="48.68629" lon="-1.48">
        <ele>13.12</ele>
        <time>2021-07-30T19:16:04Z</time>
      </trkpt>
      <trkpt lat="48.68629" lon="-1.48007">
        <ele>12.63</ele>
        <time>2021-07-30T19:16:05Z</time>
      </trkpt>
      <trkpt lat="48.68628" lon="-1.48014">
        <ele>12.63</ele>
        <time>2021-07-30T19:16:06Z</time>
      </trkpt>
      <trkpt lat="48.68626" lon="-1.48056">
        <ele>13.12</ele>
        <time>2021-07-30T19:16:11Z</time>
      </trkpt>
      <trkpt lat="48.68626" lon="-1.48066">
        <ele>13.12</ele>
        <time>2021-07-30T19:16:12Z</time>
      </trkpt>
      <trkpt lat="48.68628" lon="-1.48074">
        <ele>13.12</ele>
        <time>2021-07-30T19:16:13Z</time>
      </trkpt>
      <trkpt lat="48.68629" lon="-1.48083">
        <ele>13.12</ele>
        <time>2021-07-30T19:16:14Z</time>
      </trkpt>
      <trkpt lat="48.68631" lon="-1.48092">
        <ele>13.12</ele>
        <time>2021-07-30T19:16:15Z</time>
      </trkpt>
      <trkpt lat="48.68634" lon="-1.48099">
        <ele>13.12</ele>
        <time>2021-07-30T19:16:16Z</time>
      </trkpt>
      <trkpt lat="48.68685" lon="-1.48231">
        <ele>10.23</ele>
        <time>2021-07-30T19:16:33Z</time>
      </trkpt>
      <trkpt lat="48.6871" lon="-1.48292">
        <ele>10.71</ele>
        <time>2021-07-30T19:16:45Z</time>
      </trkpt>
      <trkpt lat="48.68734" lon="-1.48354">
        <ele>10.23</ele>
        <time>2021-07-30T19:16:53Z</time>
      </trkpt>
      <trkpt lat="48.68749" lon="-1.48392">
        <ele>9.75</ele>
        <time>2021-07-30T19:16:58Z</time>
      </trkpt>
      <trkpt lat="48.68754" lon="-1.48405">
        <ele>9.75</ele>
        <time>2021-07-30T19:17:00Z</time>
      </trkpt>
      <trkpt lat="48.68757" lon="-1.48413">
        <ele>9.75</ele>
        <time>2021-07-30T19:17:01Z</time>
      </trkpt>
      <trkpt lat="48.68761" lon="-1.48422">
        <ele>9.75</ele>
        <time>2021-07-30T19:17:02Z</time>
      </trkpt>
      <trkpt lat="48.68844" lon="-1.48578">
        <ele>6.87</ele>
        <time>2021-07-30T19:17:15Z</time>
      </trkpt>
      <trkpt lat="48.68911" lon="-1.48667">
        <ele>5.91</ele>
        <time>2021-07-30T19:17:25Z</time>
      </trkpt>
      <trkpt lat="48.68966" lon="-1.4874">
        <ele>4.94</ele>
        <time>2021-07-30T19:17:33Z</time>
      </trkpt>
      <trkpt lat="48.6897" lon="-1.4875">
        <ele>5.42</ele>
        <time>2021-07-30T19:17:34Z</time>
      </trkpt>
      <trkpt lat="48.68973" lon="-1.48759">
        <ele>4.94</ele>
        <time>2021-07-30T19:17:35Z</time>
      </trkpt>
      <trkpt lat="48.68972" lon="-1.4877">
        <ele>4.46</ele>
        <time>2021-07-30T19:17:36Z</time>
      </trkpt>
      <trkpt lat="48.6897" lon="-1.48779">
        <ele>4.94</ele>
        <time>2021-07-30T19:17:37Z</time>
      </trkpt>
      <trkpt lat="48.68965" lon="-1.48788">
        <ele>4.94</ele>
        <time>2021-07-30T19:17:38Z</time>
      </trkpt>
      <trkpt lat="48.68959" lon="-1.48798">
        <ele>4.94</ele>
        <time>2021-07-30T19:17:39Z</time>
      </trkpt>
      <trkpt lat="48.6888" lon="-1.48935">
        <ele>3.98</ele>
        <time>2021-07-30T19:17:50Z</time>
      </trkpt>
      <trkpt lat="48.68859" lon="-1.48971">
        <ele>3.5</ele>
        <time>2021-07-30T19:17:53Z</time>
      </trkpt>
      <trkpt lat="48.68856" lon="-1.4898">
        <ele>3.02</ele>
        <time>2021-07-30T19:17:54Z</time>
      </trkpt>
      <trkpt lat="48.68854" lon="-1.48995">
        <ele>2.06</ele>
        <time>2021-07-30T19:17:56Z</time>
      </trkpt>
      <trkpt lat="48.68853" lon="-1.49">
        <ele>1.58</ele>
        <time>2021-07-30T19:17:57Z</time>
      </trkpt>
      <trkpt lat="48.68854" lon="-1.49007">
        <ele>1.58</ele>
        <time>2021-07-30T19:17:58Z</time>
      </trkpt>
      <trkpt lat="48.68855" lon="-1.49014">
        <ele>1.58</ele>
        <time>2021-07-30T19:17:59Z</time>
      </trkpt>
      <trkpt lat="48.68856" lon="-1.49031">
        <ele>2.54</ele>
        <time>2021-07-30T19:18:00Z</time>
      </trkpt>
      <trkpt lat="48.68858" lon="-1.49052">
        <ele>3.02</ele>
        <time>2021-07-30T19:18:03Z</time>
      </trkpt>
      <trkpt lat="48.6886" lon="-1.49064">
        <ele>3.02</ele>
        <time>2021-07-30T19:18:04Z</time>
      </trkpt>
      <trkpt lat="48.68858" lon="-1.49077">
        <ele>3.98</ele>
        <time>2021-07-30T19:18:05Z</time>
      </trkpt>
      <trkpt lat="48.68857" lon="-1.49091">
        <ele>3.5</ele>
        <time>2021-07-30T19:18:06Z</time>
      </trkpt>
      <trkpt lat="48.68855" lon="-1.49105">
        <ele>2.54</ele>
        <time>2021-07-30T19:18:07Z</time>
      </trkpt>
      <trkpt lat="48.68851" lon="-1.49119">
        <ele>2.06</ele>
        <time>2021-07-30T19:18:08Z</time>
      </trkpt>
      <trkpt lat="48.68801" lon="-1.49317">
        <ele>0.62</ele>
        <time>2021-07-30T19:18:20Z</time>
      </trkpt>
      <trkpt lat="48.68753" lon="-1.49553">
        <ele>2.06</ele>
        <time>2021-07-30T19:18:32Z</time>
      </trkpt>
      <trkpt lat="48.68749" lon="-1.49616">
        <ele>3.98</ele>
        <time>2021-07-30T19:18:35Z</time>
      </trkpt>
      <trkpt lat="48.68749" lon="-1.49616">
        <ele>3.98</ele>
        <time>2021-07-30T19:18:36Z</time>
      </trkpt>
      <trkpt lat="48.68748" lon="-1.49626">
        <ele>4.46</ele>
        <time>2021-07-30T19:18:37Z</time>
      </trkpt>
      <trkpt lat="48.68753" lon="-1.49632">
        <ele>4.46</ele>
        <time>2021-07-30T19:18:38Z</time>
      </trkpt>
      <trkpt lat="48.68756" lon="-1.49636">
        <ele>4.46</ele>
        <time>2021-07-30T19:18:39Z</time>
      </trkpt>
      <trkpt lat="48.68759" lon="-1.49641">
        <ele>4.46</ele>
        <time>2021-07-30T19:18:40Z</time>
      </trkpt>
      <trkpt lat="48.68762" lon="-1.49647">
        <ele>4.46</ele>
        <time>2021-07-30T19:18:41Z</time>
      </trkpt>
      <trkpt lat="48.68824" lon="-1.49703">
        <ele>3.98</ele>
        <time>2021-07-30T19:18:51Z</time>
      </trkpt>
      <trkpt lat="48.68955" lon="-1.49826">
        <ele>3.02</ele>
        <time>2021-07-30T19:19:05Z</time>
      </trkpt>
      <trkpt lat="48.69111" lon="-1.49989">
        <ele>3.02</ele>
        <time>2021-07-30T19:19:19Z</time>
      </trkpt>
      <trkpt lat="48.69294" lon="-1.50196">
        <ele>5.91</ele>
        <time>2021-07-30T19:19:34Z</time>
      </trkpt>
      <trkpt lat="48.69403" lon="-1.50336">
        <ele>4.46</ele>
        <time>2021-07-30T19:19:44Z</time>
      </trkpt>
      <trkpt lat="48.69553" lon="-1.5042">
        <ele>1.58</ele>
        <time>2021-07-30T19:19:54Z</time>
      </trkpt>
      <trkpt lat="48.69802" lon="-1.50547">
        <ele>-0.34</ele>
        <time>2021-07-30T19:20:09Z</time>
      </trkpt>
      <trkpt lat="48.69993" lon="-1.50669">
        <ele>2.06</ele>
        <time>2021-07-30T19:20:21Z</time>
      </trkpt>
      <trkpt lat="48.70134" lon="-1.50769">
        <ele>1.58</ele>
        <time>2021-07-30T19:20:31Z</time>
      </trkpt>
      <trkpt lat="48.70146" lon="-1.50775">
        <ele>2.06</ele>
        <time>2021-07-30T19:20:32Z</time>
      </trkpt>
      <trkpt lat="48.70158" lon="-1.50781">
        <ele>1.58</ele>
        <time>2021-07-30T19:20:33Z</time>
      </trkpt>
      <trkpt lat="48.7017" lon="-1.50787">
        <ele>1.58</ele>
        <time>2021-07-30T19:20:34Z</time>
      </trkpt>
      <trkpt lat="48.70327" lon="-1.50813">
        <ele>-0.34</ele>
        <time>2021-07-30T19:20:45Z</time>
      </trkpt>
      <trkpt lat="48.70592" lon="-1.50841">
        <ele>0.62</ele>
        <time>2021-07-30T19:21:02Z</time>
      </trkpt>
      <trkpt lat="48.70791" lon="-1.50868">
        <ele>-0.82</ele>
        <time>2021-07-30T19:21:14Z</time>
      </trkpt>
      <trkpt lat="48.70991" lon="-1.50949">
        <ele>-0.82</ele>
        <time>2021-07-30T19:21:27Z</time>
      </trkpt>
      <trkpt lat="48.71026" lon="-1.50963">
        <ele>-0.82</ele>
        <time>2021-07-30T19:21:32Z</time>
      </trkpt>
      <trkpt lat="48.71027" lon="-1.50963">
        <ele>0.14</ele>
        <time>2021-07-30T19:21:34Z</time>
      </trkpt>
      <trkpt lat="48.71027" lon="-1.50965">
        <ele>0.14</ele>
        <time>2021-07-30T19:21:35Z</time>
      </trkpt>
      <trkpt lat="48.71026" lon="-1.50969">
        <ele>0.14</ele>
        <time>2021-07-30T19:21:36Z</time>
      </trkpt>
      <trkpt lat="48.71025" lon="-1.50975">
        <ele>0.14</ele>
        <time>2021-07-30T19:21:37Z</time>
      </trkpt>
      <trkpt lat="48.71024" lon="-1.50983">
        <ele>0.62</ele>
        <time>2021-07-30T19:21:38Z</time>
      </trkpt>
      <trkpt lat="48.71011" lon="-1.51068">
        <ele>1.1</ele>
        <time>2021-07-30T19:21:46Z</time>
      </trkpt>
      <trkpt lat="48.70983" lon="-1.512">
        <ele>4.46</ele>
        <time>2021-07-30T19:21:59Z</time>
      </trkpt>
      <trkpt lat="48.70966" lon="-1.51279">
        <ele>6.39</ele>
        <time>2021-07-30T19:22:09Z</time>
      </trkpt>
      <trkpt lat="48.70957" lon="-1.51325">
        <ele>6.39</ele>
        <time>2021-07-30T19:22:16Z</time>
      </trkpt>
      <trkpt lat="48.70955" lon="-1.51331">
        <ele>6.39</ele>
        <time>2021-07-30T19:22:17Z</time>
      </trkpt>
      <trkpt lat="48.70954" lon="-1.51336">
        <ele>6.39</ele>
        <time>2021-07-30T19:22:18Z</time>
      </trkpt>
      <trkpt lat="48.70954" lon="-1.5134">
        <ele>6.39</ele>
        <time>2021-07-30T19:22:19Z</time>
      </trkpt>
      <trkpt lat="48.70953" lon="-1.51342">
        <ele>5.91</ele>
        <time>2021-07-30T19:22:20Z</time>
      </trkpt>
      <trkpt lat="48.70953" lon="-1.51342">
        <ele>5.91</ele>
        <time>2021-07-30T19:22:41Z</time>
      </trkpt>
      <trkpt lat="48.70953" lon="-1.51342">
        <ele>5.91</ele>
        <time>2021-07-30T19:27:53Z</time>
      </trkpt>
      <trkpt lat="48.70953" lon="-1.51342">
        <ele>6.39</ele>
        <time>2021-07-30T19:29:03Z</time>
      </trkpt>
      <trkpt lat="48.70953" lon="-1.51342">
        <ele>6.87</ele>
        <time>2021-07-30T19:29:55Z</time>
      </trkpt>
      <trkpt lat="48.70953" lon="-1.51342">
        <ele>6.87</ele>
        <time>2021-07-30T19:31:26Z</time>
      </trkpt>
      <trkpt lat="48.70953" lon="-1.51342">
        <ele>7.35</ele>
        <time>2021-07-30T19:32:30Z</time>
      </trkpt>
    </trkseg>
  </trk>
</gpx>